sensor_id;sensor_type;location;lat;lon;timestamp;P1;durP1;ratioP1;P2;durP2;ratioP2
64938;SDS011;51453;47.738;7.420;2023-04-06T00:01:37;24.45;;;13.55;;
64938;SDS011;51453;47.738;7.420;2023-04-06T00:04:03;21.33;;;12.45;;
64938;SDS011;51453;47.738;7.420;2023-04-06T00:06:29;22.45;;;12.52;;
64938;SDS011;51453;47.738;7.420;2023-04-06T00:08:57;19.38;;;12.05;;
64938;SDS011;51453;47.738;7.420;2023-04-06T00:11:23;23.55;;;12.18;;
64938;SDS011;51453;47.738;7.420;2023-04-06T00:13:48;22.67;;;12.60;;
64938;SDS011;51453;47.738;7.420;2023-04-06T00:16:14;20.00;;;12.32;;
64938;SDS011;51453;47.738;7.420;2023-04-06T00:18:40;18.60;;;11.52;;
64938;SDS011;51453;47.738;7.420;2023-04-06T00:21:06;20.45;;;12.57;;
64938;SDS011;51453;47.738;7.420;2023-04-06T00:23:32;21.45;;;13.43;;
64938;SDS011;51453;47.738;7.420;2023-04-06T00:25:58;23.42;;;13.43;;
64938;SDS011;51453;47.738;7.420;2023-04-06T00:28:23;23.20;;;13.48;;
64938;SDS011;51453;47.738;7.420;2023-04-06T00:30:53;23.92;;;13.80;;
64938;SDS011;51453;47.738;7.420;2023-04-06T00:33:20;23.20;;;13.73;;
64938;SDS011;51453;47.738;7.420;2023-04-06T00:35:46;26.65;;;13.32;;
64938;SDS011;51453;47.738;7.420;2023-04-06T00:38:12;22.95;;;13.07;;
64938;SDS011;51453;47.738;7.420;2023-04-06T00:40:39;23.85;;;12.65;;
64938;SDS011;51453;47.738;7.420;2023-04-06T00:43:07;21.27;;;12.45;;
64938;SDS011;51453;47.738;7.420;2023-04-06T00:45:34;24.20;;;12.80;;
64938;SDS011;51453;47.738;7.420;2023-04-06T00:48:00;22.98;;;12.93;;
64938;SDS011;51453;47.738;7.420;2023-04-06T00:50:27;22.17;;;13.05;;
64938;SDS011;51453;47.738;7.420;2023-04-06T00:52:53;20.90;;;12.48;;
64938;SDS011;51453;47.738;7.420;2023-04-06T00:55:19;24.80;;;13.32;;
64938;SDS011;51453;47.738;7.420;2023-04-06T00:57:45;25.92;;;15.00;;
64938;SDS011;51453;47.738;7.420;2023-04-06T01:00:11;28.30;;;15.40;;
64938;SDS011;51453;47.738;7.420;2023-04-06T01:02:38;24.50;;;14.90;;
64938;SDS011;51453;47.738;7.420;2023-04-06T01:05:04;25.15;;;15.15;;
64938;SDS011;51453;47.738;7.420;2023-04-06T01:07:30;23.92;;;13.88;;
64938;SDS011;51453;47.738;7.420;2023-04-06T01:09:55;26.90;;;14.05;;
64938;SDS011;51453;47.738;7.420;2023-04-06T01:12:21;29.17;;;15.93;;
64938;SDS011;51453;47.738;7.420;2023-04-06T01:14:47;24.13;;;14.38;;
64938;SDS011;51453;47.738;7.420;2023-04-06T01:17:13;23.88;;;15.15;;
64938;SDS011;51453;47.738;7.420;2023-04-06T01:19:39;24.50;;;14.35;;
64938;SDS011;51453;47.738;7.420;2023-04-06T01:22:05;26.15;;;14.40;;
64938;SDS011;51453;47.738;7.420;2023-04-06T01:24:31;24.45;;;14.88;;
64938;SDS011;51453;47.738;7.420;2023-04-06T01:26:57;23.73;;;14.77;;
64938;SDS011;51453;47.738;7.420;2023-04-06T01:29:23;22.83;;;13.90;;
64938;SDS011;51453;47.738;7.420;2023-04-06T01:31:49;27.25;;;14.90;;
64938;SDS011;51453;47.738;7.420;2023-04-06T01:34:15;21.55;;;13.68;;
64938;SDS011;51453;47.738;7.420;2023-04-06T01:36:41;22.58;;;13.52;;
64938;SDS011;51453;47.738;7.420;2023-04-06T01:39:07;23.77;;;14.15;;
64938;SDS011;51453;47.738;7.420;2023-04-06T01:41:33;20.23;;;13.35;;
64938;SDS011;51453;47.738;7.420;2023-04-06T01:43:59;21.98;;;13.80;;
64938;SDS011;51453;47.738;7.420;2023-04-06T01:46:25;23.35;;;13.60;;
64938;SDS011;51453;47.738;7.420;2023-04-06T01:48:51;24.55;;;14.52;;
64938;SDS011;51453;47.738;7.420;2023-04-06T01:51:17;22.60;;;13.00;;
64938;SDS011;51453;47.738;7.420;2023-04-06T01:53:42;21.33;;;13.18;;
64938;SDS011;51453;47.738;7.420;2023-04-06T01:56:08;23.25;;;13.38;;
64938;SDS011;51453;47.738;7.420;2023-04-06T01:58:34;23.02;;;13.70;;
64938;SDS011;51453;47.738;7.420;2023-04-06T02:01:00;24.40;;;13.30;;
64938;SDS011;51453;47.738;7.420;2023-04-06T02:03:26;20.75;;;13.35;;
64938;SDS011;51453;47.738;7.420;2023-04-06T02:05:51;18.17;;;12.07;;
64938;SDS011;51453;47.738;7.420;2023-04-06T02:08:17;20.75;;;12.40;;
64938;SDS011;51453;47.738;7.420;2023-04-06T02:10:43;20.23;;;12.32;;
64938;SDS011;51453;47.738;7.420;2023-04-06T02:13:08;24.27;;;13.13;;
64938;SDS011;51453;47.738;7.420;2023-04-06T02:15:34;19.27;;;11.27;;
64938;SDS011;51453;47.738;7.420;2023-04-06T02:18:00;20.42;;;12.75;;
64938;SDS011;51453;47.738;7.420;2023-04-06T02:20:26;25.67;;;12.60;;
64938;SDS011;51453;47.738;7.420;2023-04-06T02:22:51;21.15;;;11.82;;
64938;SDS011;51453;47.738;7.420;2023-04-06T02:25:17;24.00;;;12.60;;
64938;SDS011;51453;47.738;7.420;2023-04-06T02:27:43;20.55;;;11.82;;
64938;SDS011;51453;47.738;7.420;2023-04-06T02:30:09;18.70;;;11.85;;
64938;SDS011;51453;47.738;7.420;2023-04-06T02:32:35;18.55;;;12.40;;
64938;SDS011;51453;47.738;7.420;2023-04-06T02:35:00;20.52;;;12.25;;
64938;SDS011;51453;47.738;7.420;2023-04-06T02:37:26;19.15;;;11.70;;
64938;SDS011;51453;47.738;7.420;2023-04-06T02:39:52;18.65;;;11.75;;
64938;SDS011;51453;47.738;7.420;2023-04-06T02:42:17;19.05;;;12.10;;
64938;SDS011;51453;47.738;7.420;2023-04-06T02:44:43;20.08;;;12.68;;
64938;SDS011;51453;47.738;7.420;2023-04-06T02:47:09;24.55;;;13.02;;
64938;SDS011;51453;47.738;7.420;2023-04-06T02:49:35;21.90;;;12.90;;
64938;SDS011;51453;47.738;7.420;2023-04-06T02:52:01;19.05;;;12.07;;
64938;SDS011;51453;47.738;7.420;2023-04-06T02:54:27;20.90;;;12.68;;
64938;SDS011;51453;47.738;7.420;2023-04-06T02:56:53;20.48;;;12.75;;
64938;SDS011;51453;47.738;7.420;2023-04-06T02:59:18;18.92;;;12.20;;
64938;SDS011;51453;47.738;7.420;2023-04-06T03:01:44;17.75;;;12.32;;
64938;SDS011;51453;47.738;7.420;2023-04-06T03:04:10;18.77;;;12.15;;
64938;SDS011;51453;47.738;7.420;2023-04-06T03:06:36;19.60;;;12.23;;
64938;SDS011;51453;47.738;7.420;2023-04-06T03:09:02;20.02;;;11.63;;
64938;SDS011;51453;47.738;7.420;2023-04-06T03:11:28;20.45;;;10.73;;
64938;SDS011;51453;47.738;7.420;2023-04-06T03:13:53;16.17;;;10.40;;
64938;SDS011;51453;47.738;7.420;2023-04-06T03:16:19;14.73;;;9.63;;
64938;SDS011;51453;47.738;7.420;2023-04-06T03:18:45;17.15;;;10.10;;
64938;SDS011;51453;47.738;7.420;2023-04-06T03:21:12;16.35;;;9.63;;
64938;SDS011;51453;47.738;7.420;2023-04-06T03:23:40;16.67;;;10.23;;
64938;SDS011;51453;47.738;7.420;2023-04-06T03:26:06;13.70;;;9.07;;
64938;SDS011;51453;47.738;7.420;2023-04-06T03:28:32;14.70;;;9.38;;
64938;SDS011;51453;47.738;7.420;2023-04-06T03:30:57;15.15;;;9.32;;
64938;SDS011;51453;47.738;7.420;2023-04-06T03:33:23;17.90;;;9.88;;
64938;SDS011;51453;47.738;7.420;2023-04-06T03:35:51;15.45;;;9.70;;
64938;SDS011;51453;47.738;7.420;2023-04-06T03:38:18;14.75;;;9.82;;
64938;SDS011;51453;47.738;7.420;2023-04-06T03:40:44;15.88;;;10.27;;
64938;SDS011;51453;47.738;7.420;2023-04-06T03:43:09;16.23;;;9.80;;
64938;SDS011;51453;47.738;7.420;2023-04-06T03:45:35;16.33;;;10.02;;
64938;SDS011;51453;47.738;7.420;2023-04-06T03:48:01;15.23;;;10.27;;
64938;SDS011;51453;47.738;7.420;2023-04-06T03:50:27;14.25;;;9.82;;
64938;SDS011;51453;47.738;7.420;2023-04-06T03:52:52;16.38;;;10.30;;
64938;SDS011;51453;47.738;7.420;2023-04-06T03:55:18;18.48;;;10.85;;
64938;SDS011;51453;47.738;7.420;2023-04-06T03:57:44;16.35;;;9.80;;
64938;SDS011;51453;47.738;7.420;2023-04-06T04:00:10;14.93;;;9.82;;
64938;SDS011;51453;47.738;7.420;2023-04-06T04:02:36;21.13;;;10.40;;
64938;SDS011;51453;47.738;7.420;2023-04-06T04:05:02;14.68;;;9.90;;
64938;SDS011;51453;47.738;7.420;2023-04-06T04:07:28;16.50;;;10.02;;
64938;SDS011;51453;47.738;7.420;2023-04-06T04:09:54;13.93;;;9.32;;
64938;SDS011;51453;47.738;7.420;2023-04-06T04:12:19;17.25;;;9.65;;
64938;SDS011;51453;47.738;7.420;2023-04-06T04:14:45;14.48;;;9.20;;
64938;SDS011;51453;47.738;7.420;2023-04-06T04:17:11;16.63;;;10.00;;
64938;SDS011;51453;47.738;7.420;2023-04-06T04:19:36;13.98;;;9.18;;
64938;SDS011;51453;47.738;7.420;2023-04-06T04:22:02;12.10;;;8.63;;
64938;SDS011;51453;47.738;7.420;2023-04-06T04:24:31;16.92;;;11.30;;
64938;SDS011;51453;47.738;7.420;2023-04-06T04:26:57;18.73;;;11.30;;
64938;SDS011;51453;47.738;7.420;2023-04-06T04:29:22;17.77;;;11.88;;
64938;SDS011;51453;47.738;7.420;2023-04-06T04:31:48;21.33;;;12.75;;
64938;SDS011;51453;47.738;7.420;2023-04-06T04:34:14;23.83;;;13.30;;
64938;SDS011;51453;47.738;7.420;2023-04-06T04:36:40;21.75;;;13.35;;
64938;SDS011;51453;47.738;7.420;2023-04-06T04:39:09;20.95;;;12.98;;
64938;SDS011;51453;47.738;7.420;2023-04-06T04:41:35;22.73;;;13.10;;
64938;SDS011;51453;47.738;7.420;2023-04-06T04:44:00;25.75;;;13.88;;
64938;SDS011;51453;47.738;7.420;2023-04-06T04:46:26;21.83;;;13.20;;
64938;SDS011;51453;47.738;7.420;2023-04-06T04:48:52;18.98;;;12.52;;
64938;SDS011;51453;47.738;7.420;2023-04-06T04:51:18;22.08;;;12.95;;
64938;SDS011;51453;47.738;7.420;2023-04-06T04:53:44;19.95;;;13.00;;
64938;SDS011;51453;47.738;7.420;2023-04-06T04:56:10;18.90;;;12.85;;
64938;SDS011;51453;47.738;7.420;2023-04-06T04:58:36;17.75;;;11.82;;
64938;SDS011;51453;47.738;7.420;2023-04-06T05:01:02;23.08;;;12.98;;
64938;SDS011;51453;47.738;7.420;2023-04-06T05:03:27;18.77;;;11.63;;
64938;SDS011;51453;47.738;7.420;2023-04-06T05:05:53;20.90;;;11.95;;
64938;SDS011;51453;47.738;7.420;2023-04-06T05:08:19;22.05;;;13.00;;
64938;SDS011;51453;47.738;7.420;2023-04-06T05:10:45;20.85;;;12.75;;
64938;SDS011;51453;47.738;7.420;2023-04-06T05:13:11;25.27;;;13.18;;
64938;SDS011;51453;47.738;7.420;2023-04-06T05:15:37;21.33;;;12.68;;
64938;SDS011;51453;47.738;7.420;2023-04-06T05:18:06;23.58;;;12.57;;
64938;SDS011;51453;47.738;7.420;2023-04-06T05:20:33;20.85;;;12.63;;
64938;SDS011;51453;47.738;7.420;2023-04-06T05:22:59;18.95;;;12.07;;
64938;SDS011;51453;47.738;7.420;2023-04-06T05:25:25;19.10;;;11.52;;
64938;SDS011;51453;47.738;7.420;2023-04-06T05:27:51;19.33;;;11.85;;
64938;SDS011;51453;47.738;7.420;2023-04-06T05:30:16;18.23;;;11.10;;
64938;SDS011;51453;47.738;7.420;2023-04-06T05:32:42;18.65;;;11.05;;
64938;SDS011;51453;47.738;7.420;2023-04-06T05:35:09;21.48;;;11.88;;
64938;SDS011;51453;47.738;7.420;2023-04-06T05:37:35;17.92;;;11.68;;
64938;SDS011;51453;47.738;7.420;2023-04-06T05:40:01;17.02;;;10.45;;
64938;SDS011;51453;47.738;7.420;2023-04-06T05:42:27;15.35;;;10.25;;
64938;SDS011;51453;47.738;7.420;2023-04-06T05:44:53;16.10;;;9.95;;
64938;SDS011;51453;47.738;7.420;2023-04-06T05:47:18;16.45;;;10.90;;
64938;SDS011;51453;47.738;7.420;2023-04-06T05:49:44;17.65;;;10.48;;
64938;SDS011;51453;47.738;7.420;2023-04-06T05:52:10;16.15;;;10.25;;
64938;SDS011;51453;47.738;7.420;2023-04-06T05:54:36;18.67;;;11.07;;
64938;SDS011;51453;47.738;7.420;2023-04-06T05:57:02;21.13;;;11.68;;
64938;SDS011;51453;47.738;7.420;2023-04-06T05:59:30;18.42;;;9.70;;
64938;SDS011;51453;47.738;7.420;2023-04-06T06:01:56;14.10;;;9.57;;
64938;SDS011;51453;47.738;7.420;2023-04-06T06:04:22;16.52;;;9.30;;
64938;SDS011;51453;47.738;7.420;2023-04-06T06:06:48;13.60;;;9.27;;
64938;SDS011;51453;47.738;7.420;2023-04-06T06:09:14;16.98;;;9.52;;
64938;SDS011;51453;47.738;7.420;2023-04-06T06:11:40;16.27;;;9.88;;
64938;SDS011;51453;47.738;7.420;2023-04-06T06:14:06;18.42;;;9.73;;
64938;SDS011;51453;47.738;7.420;2023-04-06T06:16:32;13.13;;;8.80;;
64938;SDS011;51453;47.738;7.420;2023-04-06T06:18:58;18.95;;;9.63;;
64938;SDS011;51453;47.738;7.420;2023-04-06T06:21:24;15.18;;;9.18;;
64938;SDS011;51453;47.738;7.420;2023-04-06T06:23:50;15.85;;;9.18;;
64938;SDS011;51453;47.738;7.420;2023-04-06T06:26:16;14.27;;;9.05;;
64938;SDS011;51453;47.738;7.420;2023-04-06T06:28:42;15.65;;;9.20;;
64938;SDS011;51453;47.738;7.420;2023-04-06T06:31:07;14.82;;;9.05;;
64938;SDS011;51453;47.738;7.420;2023-04-06T06:33:33;12.02;;;8.68;;
64938;SDS011;51453;47.738;7.420;2023-04-06T06:35:59;12.60;;;8.40;;
64938;SDS011;51453;47.738;7.420;2023-04-06T06:38:25;14.98;;;8.43;;
64938;SDS011;51453;47.738;7.420;2023-04-06T06:40:51;12.85;;;8.13;;
64938;SDS011;51453;47.738;7.420;2023-04-06T06:43:16;16.42;;;8.60;;
64938;SDS011;51453;47.738;7.420;2023-04-06T06:45:42;14.27;;;8.45;;
64938;SDS011;51453;47.738;7.420;2023-04-06T06:48:09;13.73;;;8.88;;
64938;SDS011;51453;47.738;7.420;2023-04-06T06:50:34;12.52;;;8.57;;
64938;SDS011;51453;47.738;7.420;2023-04-06T06:53:00;18.30;;;8.52;;
64938;SDS011;51453;47.738;7.420;2023-04-06T06:55:26;14.52;;;8.68;;
64938;SDS011;51453;47.738;7.420;2023-04-06T06:57:52;12.77;;;9.43;;
64938;SDS011;51453;47.738;7.420;2023-04-06T07:00:18;14.70;;;8.63;;
64938;SDS011;51453;47.738;7.420;2023-04-06T07:02:46;13.10;;;8.80;;
64938;SDS011;51453;47.738;7.420;2023-04-06T07:05:15;14.77;;;8.93;;
64938;SDS011;51453;47.738;7.420;2023-04-06T07:07:41;17.33;;;9.02;;
64938;SDS011;51453;47.738;7.420;2023-04-06T07:10:07;12.45;;;8.77;;
64938;SDS011;51453;47.738;7.420;2023-04-06T07:12:33;16.38;;;8.48;;
64938;SDS011;51453;47.738;7.420;2023-04-06T07:14:59;14.73;;;8.50;;
64938;SDS011;51453;47.738;7.420;2023-04-06T07:17:26;13.77;;;8.65;;
64938;SDS011;51453;47.738;7.420;2023-04-06T07:19:51;24.88;;;9.00;;
64938;SDS011;51453;47.738;7.420;2023-04-06T07:22:17;15.52;;;8.23;;
64938;SDS011;51453;47.738;7.420;2023-04-06T07:24:43;15.45;;;8.52;;
64938;SDS011;51453;47.738;7.420;2023-04-06T07:27:08;14.35;;;7.93;;
64938;SDS011;51453;47.738;7.420;2023-04-06T07:29:34;12.05;;;8.10;;
64938;SDS011;51453;47.738;7.420;2023-04-06T07:32:00;11.70;;;7.43;;
64938;SDS011;51453;47.738;7.420;2023-04-06T07:34:26;15.18;;;8.50;;
64938;SDS011;51453;47.738;7.420;2023-04-06T07:36:51;11.98;;;7.45;;
64938;SDS011;51453;47.738;7.420;2023-04-06T07:39:18;14.65;;;6.95;;
64938;SDS011;51453;47.738;7.420;2023-04-06T07:41:45;15.63;;;7.32;;
64938;SDS011;51453;47.738;7.420;2023-04-06T07:44:10;12.30;;;8.13;;
64938;SDS011;51453;47.738;7.420;2023-04-06T07:46:36;13.00;;;7.57;;
64938;SDS011;51453;47.738;7.420;2023-04-06T07:49:02;13.43;;;6.78;;
64938;SDS011;51453;47.738;7.420;2023-04-06T07:51:28;15.30;;;7.90;;
64938;SDS011;51453;47.738;7.420;2023-04-06T07:53:54;11.02;;;7.18;;
64938;SDS011;51453;47.738;7.420;2023-04-06T07:56:20;17.63;;;7.07;;
64938;SDS011;51453;47.738;7.420;2023-04-06T07:58:46;13.95;;;7.30;;
64938;SDS011;51453;47.738;7.420;2023-04-06T08:01:12;11.63;;;6.68;;
64938;SDS011;51453;47.738;7.420;2023-04-06T08:03:39;12.15;;;6.63;;
64938;SDS011;51453;47.738;7.420;2023-04-06T08:06:05;12.75;;;6.55;;
64938;SDS011;51453;47.738;7.420;2023-04-06T08:08:31;12.15;;;5.95;;
64938;SDS011;51453;47.738;7.420;2023-04-06T08:10:56;12.20;;;6.15;;
64938;SDS011;51453;47.738;7.420;2023-04-06T08:13:22;12.98;;;6.93;;
64938;SDS011;51453;47.738;7.420;2023-04-06T08:15:48;10.30;;;6.65;;
64938;SDS011;51453;47.738;7.420;2023-04-06T08:18:14;8.57;;;6.00;;
64938;SDS011;51453;47.738;7.420;2023-04-06T08:20:40;15.40;;;6.97;;
64938;SDS011;51453;47.738;7.420;2023-04-06T08:23:06;15.27;;;6.18;;
64938;SDS011;51453;47.738;7.420;2023-04-06T08:25:34;17.33;;;6.00;;
64938;SDS011;51453;47.738;7.420;2023-04-06T08:28:01;8.35;;;6.03;;
64938;SDS011;51453;47.738;7.420;2023-04-06T08:30:27;14.48;;;6.45;;
64938;SDS011;51453;47.738;7.420;2023-04-06T08:32:54;14.45;;;6.65;;
64938;SDS011;51453;47.738;7.420;2023-04-06T08:35:19;10.75;;;6.38;;
64938;SDS011;51453;47.738;7.420;2023-04-06T08:37:45;14.43;;;6.50;;
64938;SDS011;51453;47.738;7.420;2023-04-06T08:40:11;15.38;;;6.50;;
64938;SDS011;51453;47.738;7.420;2023-04-06T08:42:42;16.60;;;6.50;;
64938;SDS011;51453;47.738;7.420;2023-04-06T08:45:14;12.43;;;6.88;;
64938;SDS011;51453;47.738;7.420;2023-04-06T08:47:41;13.98;;;6.95;;
64938;SDS011;51453;47.738;7.420;2023-04-06T08:50:07;12.25;;;6.47;;
64938;SDS011;51453;47.738;7.420;2023-04-06T08:52:36;11.05;;;6.28;;
64938;SDS011;51453;47.738;7.420;2023-04-06T08:55:04;8.32;;;6.18;;
64938;SDS011;51453;47.738;7.420;2023-04-06T08:57:30;12.02;;;5.93;;
64938;SDS011;51453;47.738;7.420;2023-04-06T08:59:56;9.65;;;6.60;;
64938;SDS011;51453;47.738;7.420;2023-04-06T09:02:25;276.23;;;30.42;;
64938;SDS011;51453;47.738;7.420;2023-04-06T09:04:53;9.73;;;5.85;;
64938;SDS011;51453;47.738;7.420;2023-04-06T09:07:19;8.63;;;5.85;;
64938;SDS011;51453;47.738;7.420;2023-04-06T09:09:46;9.32;;;6.10;;
64938;SDS011;51453;47.738;7.420;2023-04-06T09:14:48;12.57;;;5.90;;
64938;SDS011;51453;47.738;7.420;2023-04-06T09:17:21;11.20;;;6.13;;
64938;SDS011;51453;47.738;7.420;2023-04-06T09:19:54;12.70;;;5.82;;
64938;SDS011;51453;47.738;7.420;2023-04-06T09:22:20;10.27;;;6.05;;
64938;SDS011;51453;47.738;7.420;2023-04-06T09:24:48;8.90;;;5.53;;
64938;SDS011;51453;47.738;7.420;2023-04-06T09:27:15;10.07;;;5.57;;
64938;SDS011;51453;47.738;7.420;2023-04-06T09:29:42;9.65;;;5.88;;
64938;SDS011;51453;47.738;7.420;2023-04-06T09:32:10;7.05;;;5.50;;
64938;SDS011;51453;47.738;7.420;2023-04-06T09:34:37;10.05;;;5.90;;
64938;SDS011;51453;47.738;7.420;2023-04-06T09:37:13;7.50;;;5.57;;
64938;SDS011;51453;47.738;7.420;2023-04-06T09:39:40;9.35;;;5.80;;
64938;SDS011;51453;47.738;7.420;2023-04-06T09:42:06;6.63;;;5.30;;
64938;SDS011;51453;47.738;7.420;2023-04-06T09:44:31;10.70;;;6.10;;
64938;SDS011;51453;47.738;7.420;2023-04-06T09:46:57;10.68;;;6.15;;
64938;SDS011;51453;47.738;7.420;2023-04-06T09:49:23;10.90;;;6.22;;
64938;SDS011;51453;47.738;7.420;2023-04-06T09:51:53;7.82;;;5.97;;
64938;SDS011;51453;47.738;7.420;2023-04-06T09:54:31;8.63;;;5.50;;
64938;SDS011;51453;47.738;7.420;2023-04-06T09:59:38;7.32;;;5.60;;
64938;SDS011;51453;47.738;7.420;2023-04-06T10:05:09;7.35;;;5.28;;
64938;SDS011;51453;47.738;7.420;2023-04-06T10:07:59;8.18;;;5.63;;
64938;SDS011;51453;47.738;7.420;2023-04-06T10:10:31;5.70;;;4.85;;
64938;SDS011;51453;47.738;7.420;2023-04-06T10:12:57;8.27;;;5.55;;
64938;SDS011;51453;47.738;7.420;2023-04-06T10:15:23;15.63;;;5.60;;
64938;SDS011;51453;47.738;7.420;2023-04-06T10:17:49;7.35;;;5.22;;
64938;SDS011;51453;47.738;7.420;2023-04-06T10:20:18;5.82;;;4.00;;
64938;SDS011;51453;47.738;7.420;2023-04-06T10:25:26;6.00;;;3.53;;
64938;SDS011;51453;47.738;7.420;2023-04-06T10:27:58;7.68;;;4.00;;
64938;SDS011;51453;47.738;7.420;2023-04-06T10:30:30;24.33;;;5.28;;
64938;SDS011;51453;47.738;7.420;2023-04-06T10:32:56;5.25;;;3.40;;
64938;SDS011;51453;47.738;7.420;2023-04-06T10:35:22;4.50;;;3.45;;
64938;SDS011;51453;47.738;7.420;2023-04-06T10:40:19;5.40;;;3.38;;
64938;SDS011;51453;47.738;7.420;2023-04-06T10:42:55;17.63;;;5.13;;
64938;SDS011;51453;47.738;7.420;2023-04-06T10:45:31;5.78;;;3.50;;
64938;SDS011;51453;47.738;7.420;2023-04-06T10:47:57;5.88;;;3.67;;
64938;SDS011;51453;47.738;7.420;2023-04-06T10:50:23;5.07;;;3.40;;
64938;SDS011;51453;47.738;7.420;2023-04-06T10:52:59;5.53;;;3.75;;
64938;SDS011;51453;47.738;7.420;2023-04-06T10:55:27;9.40;;;4.40;;
64938;SDS011;51453;47.738;7.420;2023-04-06T10:57:53;4.60;;;3.80;;
64938;SDS011;51453;47.738;7.420;2023-04-06T11:00:20;4.60;;;3.85;;
64938;SDS011;51453;47.738;7.420;2023-04-06T11:02:46;6.30;;;4.32;;
64938;SDS011;51453;47.738;7.420;2023-04-06T11:05:12;7.03;;;3.80;;
64938;SDS011;51453;47.738;7.420;2023-04-06T11:07:39;7.78;;;3.45;;
64938;SDS011;51453;47.738;7.420;2023-04-06T11:10:06;5.68;;;3.53;;
64938;SDS011;51453;47.738;7.420;2023-04-06T11:12:35;8.23;;;3.80;;
64938;SDS011;51453;47.738;7.420;2023-04-06T11:15:01;6.55;;;3.65;;
64938;SDS011;51453;47.738;7.420;2023-04-06T11:17:34;4.70;;;3.47;;
64938;SDS011;51453;47.738;7.420;2023-04-06T11:20:01;4.95;;;3.78;;
64938;SDS011;51453;47.738;7.420;2023-04-06T11:22:28;4.75;;;3.63;;
64938;SDS011;51453;47.738;7.420;2023-04-06T11:25:04;76.75;;;11.15;;
64938;SDS011;51453;47.738;7.420;2023-04-06T11:27:33;6.00;;;3.90;;
64938;SDS011;51453;47.738;7.420;2023-04-06T11:30:00;5.07;;;3.53;;
64938;SDS011;51453;47.738;7.420;2023-04-06T11:32:27;6.00;;;3.63;;
64938;SDS011;51453;47.738;7.420;2023-04-06T11:34:53;7.63;;;4.00;;
64938;SDS011;51453;47.738;7.420;2023-04-06T11:37:18;7.38;;;3.78;;
64938;SDS011;51453;47.738;7.420;2023-04-06T11:39:48;5.40;;;3.80;;
64938;SDS011;51453;47.738;7.420;2023-04-06T11:42:25;4.82;;;3.70;;
64938;SDS011;51453;47.738;7.420;2023-04-06T11:44:56;6.10;;;3.40;;
64938;SDS011;51453;47.738;7.420;2023-04-06T11:47:29;21.77;;;4.35;;
64938;SDS011;51453;47.738;7.420;2023-04-06T11:50:05;5.10;;;3.70;;
64938;SDS011;51453;47.738;7.420;2023-04-06T11:52:35;6.28;;;3.55;;
64938;SDS011;51453;47.738;7.420;2023-04-06T11:55:13;8.23;;;3.85;;
64938;SDS011;51453;47.738;7.420;2023-04-06T11:57:40;8.70;;;4.10;;
64938;SDS011;51453;47.738;7.420;2023-04-06T12:00:07;13.80;;;4.75;;
64938;SDS011;51453;47.738;7.420;2023-04-06T12:02:34;5.57;;;3.72;;
64938;SDS011;51453;47.738;7.420;2023-04-06T12:05:01;5.75;;;3.50;;
64938;SDS011;51453;47.738;7.420;2023-04-06T12:07:28;12.00;;;3.90;;
64938;SDS011;51453;47.738;7.420;2023-04-06T12:09:54;9.18;;;3.83;;
64938;SDS011;51453;47.738;7.420;2023-04-06T12:12:20;7.85;;;3.78;;
64938;SDS011;51453;47.738;7.420;2023-04-06T12:14:46;8.90;;;3.50;;
64938;SDS011;51453;47.738;7.420;2023-04-06T12:17:12;4.30;;;3.30;;
64938;SDS011;51453;47.738;7.420;2023-04-06T12:19:37;5.22;;;3.67;;
64938;SDS011;51453;47.738;7.420;2023-04-06T12:22:03;6.60;;;3.85;;
64938;SDS011;51453;47.738;7.420;2023-04-06T12:24:29;56.33;;;8.73;;
64938;SDS011;51453;47.738;7.420;2023-04-06T12:26:54;6.30;;;4.07;;
64938;SDS011;51453;47.738;7.420;2023-04-06T12:29:20;5.85;;;4.18;;
64938;SDS011;51453;47.738;7.420;2023-04-06T12:31:46;84.13;;;11.68;;
64938;SDS011;51453;47.738;7.420;2023-04-06T12:34:11;9.93;;;3.92;;
64938;SDS011;51453;47.738;7.420;2023-04-06T12:36:37;6.90;;;4.25;;
64938;SDS011;51453;47.738;7.420;2023-04-06T12:39:03;6.18;;;4.53;;
64938;SDS011;51453;47.738;7.420;2023-04-06T12:41:30;7.95;;;4.50;;
64938;SDS011;51453;47.738;7.420;2023-04-06T12:43:56;7.32;;;4.35;;
64938;SDS011;51453;47.738;7.420;2023-04-06T12:46:22;8.50;;;4.43;;
64938;SDS011;51453;47.738;7.420;2023-04-06T12:48:48;7.05;;;4.10;;
64938;SDS011;51453;47.738;7.420;2023-04-06T12:51:14;7.18;;;4.70;;
64938;SDS011;51453;47.738;7.420;2023-04-06T12:53:40;8.60;;;5.00;;
64938;SDS011;51453;47.738;7.420;2023-04-06T12:56:13;14.02;;;5.55;;
64938;SDS011;51453;47.738;7.420;2023-04-06T12:58:42;7.10;;;5.28;;
64938;SDS011;51453;47.738;7.420;2023-04-06T13:01:09;9.60;;;5.53;;
64938;SDS011;51453;47.738;7.420;2023-04-06T13:03:37;8.98;;;5.60;;
64938;SDS011;51453;47.738;7.420;2023-04-06T13:06:03;12.50;;;5.03;;
64938;SDS011;51453;47.738;7.420;2023-04-06T13:08:29;8.45;;;5.30;;
64938;SDS011;51453;47.738;7.420;2023-04-06T13:10:55;8.25;;;5.10;;
64938;SDS011;51453;47.738;7.420;2023-04-06T13:13:28;7.72;;;4.95;;
64938;SDS011;51453;47.738;7.420;2023-04-06T13:15:55;8.02;;;5.25;;
64938;SDS011;51453;47.738;7.420;2023-04-06T13:18:26;8.00;;;5.05;;
64938;SDS011;51453;47.738;7.420;2023-04-06T13:20:52;9.00;;;5.18;;
64938;SDS011;51453;47.738;7.420;2023-04-06T13:23:17;8.98;;;5.30;;
64938;SDS011;51453;47.738;7.420;2023-04-06T13:25:43;7.65;;;5.25;;
64938;SDS011;51453;47.738;7.420;2023-04-06T13:28:09;8.90;;;5.00;;
64938;SDS011;51453;47.738;7.420;2023-04-06T13:30:36;8.32;;;5.60;;
64938;SDS011;51453;47.738;7.420;2023-04-06T13:33:02;11.73;;;5.70;;
64938;SDS011;51453;47.738;7.420;2023-04-06T13:35:27;7.47;;;5.60;;
64938;SDS011;51453;47.738;7.420;2023-04-06T13:37:53;10.05;;;5.85;;
64938;SDS011;51453;47.738;7.420;2023-04-06T13:40:19;8.02;;;5.38;;
64938;SDS011;51453;47.738;7.420;2023-04-06T13:42:46;8.90;;;5.85;;
64938;SDS011;51453;47.738;7.420;2023-04-06T13:45:12;9.98;;;5.82;;
64938;SDS011;51453;47.738;7.420;2023-04-06T13:47:38;8.70;;;5.07;;
64938;SDS011;51453;47.738;7.420;2023-04-06T13:50:04;7.47;;;5.20;;
64938;SDS011;51453;47.738;7.420;2023-04-06T13:52:30;9.32;;;5.30;;
64938;SDS011;51453;47.738;7.420;2023-04-06T13:54:56;10.40;;;5.40;;
64938;SDS011;51453;47.738;7.420;2023-04-06T13:57:21;7.85;;;5.47;;
64938;SDS011;51453;47.738;7.420;2023-04-06T13:59:47;10.77;;;5.93;;
64938;SDS011;51453;47.738;7.420;2023-04-06T14:02:14;9.68;;;5.80;;
64938;SDS011;51453;47.738;7.420;2023-04-06T14:04:40;7.55;;;5.53;;
64938;SDS011;51453;47.738;7.420;2023-04-06T14:07:05;6.93;;;4.72;;
64938;SDS011;51453;47.738;7.420;2023-04-06T14:09:32;7.63;;;5.35;;
64938;SDS011;51453;47.738;7.420;2023-04-06T14:11:58;8.55;;;5.13;;
64938;SDS011;51453;47.738;7.420;2023-04-06T14:14:24;8.50;;;4.75;;
64938;SDS011;51453;47.738;7.420;2023-04-06T14:16:51;8.73;;;5.05;;
64938;SDS011;51453;47.738;7.420;2023-04-06T14:19:17;7.10;;;4.63;;
64938;SDS011;51453;47.738;7.420;2023-04-06T14:21:46;7.15;;;5.03;;
64938;SDS011;51453;47.738;7.420;2023-04-06T14:24:13;8.57;;;5.00;;
64938;SDS011;51453;47.738;7.420;2023-04-06T14:26:40;7.13;;;5.07;;
64938;SDS011;51453;47.738;7.420;2023-04-06T14:29:06;9.52;;;5.10;;
64938;SDS011;51453;47.738;7.420;2023-04-06T14:31:33;7.90;;;4.97;;
64938;SDS011;51453;47.738;7.420;2023-04-06T14:34:00;7.97;;;5.25;;
64938;SDS011;51453;47.738;7.420;2023-04-06T14:36:27;9.77;;;4.35;;
64938;SDS011;51453;47.738;7.420;2023-04-06T14:38:54;7.65;;;4.82;;
64938;SDS011;51453;47.738;7.420;2023-04-06T14:41:23;6.68;;;4.65;;
64938;SDS011;51453;47.738;7.420;2023-04-06T14:43:50;7.47;;;4.80;;